Tiempo atmosférico en la estación meteorológica de Anaga, Santa Cruz de Tenerife (19 m.)



Fecha
DESCASC
Temp. máxima en grados centígrados (hora)
DESCASC
Temp. mínima en grados centígrados (hora)
DESCASC
Temp. media en grados centígrados
DESCASC
Racha de viento máxima en m/sg (hora)
DESCASC
Velocidad máxima media en intervalos de 10 minutos(hora)
DESCASC
Precipitaciones diarias en mm
DESCASC
Precipitaciones de 00:00 a 06:00 en mm
DESCASC
Precipitaciones de 06:00 a 12:00 en mm
DESCASC
Precipitaciones de 12:00 a 18:00 en mm
DESCASC
Precipitaciones de 18:00 a 24:00 en mm
DESCASC
22-11-2020 24.8 (13:40) 17.7 (06:10) 21.3 5.28 (15:40) 2.5 (15:00) 0 0 0 0 0
21-11-2020 26.3 (14:20) 18.7 (04:10) 22.5 7.5 (20:00) 3.33 (19:20) 0 0 0 0 0
20-11-2020 25.4 (15:20) 18.9 (01:30) 22.1 4.17 (14:20) 2.22 (14:20) 0 0 0 0 0
19-11-2020 24.6 (10:50) 19.6 (00:00) 22.1 10 (02:40) 4.72 (02:40) 0 0 0 0 0
18-11-2020 31.4 (13:50) 19.3 (00:00) 25.3 12.5 (21:00) 5.83 (18:20) 0 0 0 0 0
17-11-2020 31.5 (13:50) 19 (00:00) 25.3 3.33 (14:00) 1.94 (07:40) 0 0 0 0 0
16-11-2020 26.5 (13:10) 17.8 (00:00) 22.1 5.28 (14:10) 2.78 (14:10) 0 0 0 0 0
15-11-2020 26 (11:40) 19.4 (00:00) 22.7 5.56 (13:20) 2.78 (14:20) 0 0 0 0 0
14-11-2020 27.5 (13:50) 19.5 (00:00) 23.5 7.22 (01:40) 2.78 (16:10) 0 0 0 0 0
13-11-2020 26.9 (15:20) 19.8 (00:00) 23.3 6.11 (14:50) 2.78 (14:50) 0 0 0 0 0
12-11-2020 23.9 (14:40) 18.9 (00:00) 21.4 3.33 (14:30) 1.67 (12:10) 0 0 0 0 0
11-11-2020 23.7 (13:40) 18.1 (00:00) 20.9 7.5 (20:00) 3.61 (19:40) 0 0 0 0 0
10-11-2020 23.9 (14:50) 18.8 (00:00) 21.3 7.5 (03:10) 3.06 (12:40) 0 0 0 0 0
09-11-2020 24.4 (13:10) 18.4 (00:00) 21.4 8.06 (23:30) 3.06 (13:30) 0.2 0.2 0 0 0
08-11-2020 25 (11:50) 18.7 (00:00) 21.9 6.67 (16:30) 3.06 (16:20) 0 0 0 0 0
07-11-2020 24.9 (14:00) 18.8 (00:00) 21.8 5.83 (14:10) 2.78 (14:20) 0 0 0 0 0
06-11-2020 25.8 (13:00) 16.9 (00:00) 21.3 10.28 (11:40) 4.72 (15:20) 0 0 0 0 0
05-11-2020 22.8 (10:30) 17.5 (00:00) 20.1 7.78 (07:40) 3.33 (07:50) 0.2 0.2 0 0 0
04-11-2020 22.2 (00:10) 18 (00:00) 20.1 8.61 (04:40) 3.06 (16:10) 15.4 0 2 13.4 0
03-11-2020 25.5 (15:40) 21.4 (00:00) 23.4 8.89 (23:20) 3.89 (23:30) 0 0 0 0 0
02-11-2020 25.3 (12:20) 19.3 (00:00) 22.3 8.89 (06:20) 3.89 (14:00) 0 0 0 0 0
01-11-2020 27.4 (10:40) 20 (00:00) 23.7 7.22 (10:30) 4.17 (06:20) 0 0 0 0 0
31-10-2020 30.2 (14:00) 20.9 (00:00) 25.6 10.83 (11:30) 3.89 (12:50) 0 0 0 0 0
30-10-2020 27.7 (15:20) 21.2 (00:00) 24.5 10 (05:10) 4.44 (05:10) 0 0 0 0 0
29-10-2020 25.1 (13:40) 21.1 (00:00) 23.1 9.44 (15:40) 3.61 (18:50) 0 0 0 0 0
28-10-2020 24 (13:30) 20.1 (00:00) 22.1 7.22 (21:50) 3.06 (15:10) 0 0 0 0 0
27-10-2020 25.4 (14:40) 19.9 (00:00) 22.6 8.33 (11:50) 3.61 (15:30) 0 0 0 0 0

Gráficas

Temp. máximas Temp. mínimas Temp. medias Precipitaciones Rachas de viento máximas Velocidades máximas media en intervalos de 10 minutos

Datos horarios

Fecha y hora oficial Temperatura (ºC) Velocidad del viento (km/h) Dirección del viento Racha (km/h) Dirección de racha Precipitación (mm) Presión (hPa) Tendencia (hPa) Humedad (%)
2020-11-25 23:00:00 18.5 12 Norte 42 Nordeste 0 -- -- 59
2020-11-25 22:00:00 18.4 12 Norte 35 Noroeste 0 -- -- 58
2020-11-25 21:00:00 18.1 12 Norte 40 Norte 0.6 -- -- 67
2020-11-25 20:00:00 17.8 11 Norte 33 Noroeste 2.2 -- -- 81
2020-11-25 19:00:00 17.6 7 Norte 28 Nordeste 2.4 -- -- 84
2020-11-25 18:00:00 18.1 8 Norte 29 Norte 5.4 -- -- 84
2020-11-25 17:00:00 18.9 9 Norte 27 Nordeste 13.8 -- -- 83
2020-11-25 16:00:00 23.2 9 Norte 27 Nordeste 0 -- -- 54
2020-11-25 15:00:00 24.1 10 Norte 33 Nordeste 0 -- -- 51
2020-11-25 14:00:00 24.3 13 Norte 31 Noroeste 0 -- -- 54
2020-11-25 13:00:00 24.1 9 Norte 32 Nordeste 0 -- -- 53
2020-11-25 12:00:00 23.9 17 Norte 38 Norte 0 -- -- 57
2020-11-25 11:00:00 24.1 11 Norte 26 Norte 0 -- -- 52
2020-11-25 10:00:00 23.3 9 Norte 32 Nordeste 0 -- -- 53
2020-11-25 09:00:00 21.8 8 Nordeste 22 Norte 0 -- -- 64
2020-11-25 08:00:00 20.5 4 Norte 17 Norte 0 -- -- 66
2020-11-25 07:00:00 20.7 10 Norte 34 Norte 0 -- -- 68
2020-11-25 06:00:00 20.8 13 Norte 26 Norte 0 -- -- 64
2020-11-25 05:00:00 20.6 11 Norte 25 Norte 0 -- -- 59
2020-11-25 04:00:00 17.1 2 Norte 11 Norte 0 -- -- 41
2020-11-25 03:00:00 18.5 6 Norte 9 Norte 0 -- -- 36
2020-11-25 02:00:00 17.9 3 Noroeste 8 Norte 0 -- -- 37
2020-11-25 01:00:00 18.5 5 Norte 9 Norte 0 -- -- 32
2020-11-25 00:00:00 18.8 5 Norte 9 Noroeste 0 -- -- 32
2020-11-24 23:00:00 19.4 4 Noroeste 8 Norte 0 -- -- 31
2020-11-24 22:00:00 19.2 4 Norte 9 Norte 0 -- -- 34
2020-11-24 21:00:00 19.3 5 Norte 8 Norte 0 -- -- 35
2020-11-24 20:00:00 20.2 5 Norte 10 Norte 0 -- -- 33
2020-11-24 19:00:00 21.4 5 Norte 8 Norte 0 -- -- 32
2020-11-24 18:00:00 23.3 0 Calma 9 Sur 0 -- -- 35
2020-11-24 17:00:00 24.4 2 Sudeste 8 Sudeste 0 -- -- 26
2020-11-24 16:00:00 24.5 3 Sudeste 13 Sudeste 0 -- -- 34
2020-11-24 15:00:00 25.5 4 Sudeste 15 Nordeste 0 -- -- 32
2020-11-24 14:00:00 25.2 6 Nordeste 16 Nordeste 0 -- -- 32
2020-11-24 13:00:00 26.4 7 Nordeste 20 Nordeste 0 -- -- 25
2020-11-24 12:00:00 24.3 8 Este 16 Norte 0 -- -- 39
2020-11-24 11:00:00 23.3 2 Sur 8 Sur 0 -- -- 64
2020-11-24 10:00:00 21.4 0 Calma 6 Nordeste 0 -- -- 65
2020-11-24 09:00:00 20.1 4 Noroeste 9 Noroeste 0 -- -- 65
2020-11-24 08:00:00 18.8 4 Norte 10 Nordeste 0 -- -- 60
2020-11-24 07:00:00 18.9 4 Norte 10 Norte 0 -- -- 50
2020-11-24 06:00:00 18.9 5 Norte 10 Norte 0 -- -- 45
2020-11-24 05:00:00 18.4 4 Norte 9 Norte 0 -- -- 46
2020-11-24 04:00:00 18.6 4 Norte 9 Nordeste 0 -- -- 44
2020-11-24 03:00:00 18.8 4 Norte 8 Nordeste 0 -- -- 48
2020-11-24 02:00:00 18.6 5 Norte 10 Norte 0 -- -- 52
2020-11-24 01:00:00 18.8 5 Norte 8 Norte 0 -- -- 48
2020-11-24 00:00:00 19.8 5 Noroeste 10 Norte 0 -- -- 44
2020-11-23 23:00:00 19.9 6 Norte 11 Norte 0 -- -- 44
2020-11-23 22:00:00 20.1 8 Norte 13 Norte 0 -- -- 42
2020-11-23 21:00:00 20.8 6 Norte 9 Norte 0 -- -- 38
2020-11-23 20:00:00 21.6 5 Norte 9 Norte 0 -- -- 35
2020-11-23 19:00:00 23.1 4 Norte 16 Sudoeste 0 -- -- 33
2020-11-23 18:00:00 24.3 4 Sudoeste 14 Norte 0 -- -- 29
2020-11-23 17:00:00 25 5 Nordeste 16 Nordeste 0 -- -- 32
2020-11-23 16:00:00 25.1 8 Nordeste 17 Nordeste 0 -- -- 40
2020-11-23 15:00:00 25.5 4 Sur 14 Sur 0 -- -- 50
2020-11-23 14:00:00 25.7 8 Sur 15 Sur 0 -- -- 61
2020-11-23 13:00:00 24.8 6 Sur 15 Sudeste 0 -- -- 65
2020-11-23 12:00:00 24.7 7 Sudeste 15 Este 0 -- -- 66
2020-11-23 11:00:00 24.2 6 Sur 12 Sur 0 -- -- 69
2020-11-23 10:00:00 22.3 2 Sudeste 9 Sudeste 0 -- -- 77
2020-11-23 09:00:00 19.4 0 Calma 6 Norte 0 -- -- 87
2020-11-23 08:00:00 18.2 4 Norte 9 Norte 0 -- -- 88
2020-11-23 07:00:00 18.2 4 Norte 10 Norte 0 -- -- 85
2020-11-23 06:00:00 19.2 4 Noroeste 10 Sudoeste 0 -- -- 81
2020-11-23 05:00:00 18.6 3 Noroeste 9 Sudoeste 0 -- -- 84
2020-11-23 04:00:00 19.2 4 Norte 12 Oeste 0 -- -- 85
2020-11-23 03:00:00 18.9 3 Norte 7 Norte 0 -- -- 88
2020-11-23 02:00:00 19 3 Norte 8 Norte 0 -- -- 86
2020-11-23 01:00:00 19.3 4 Norte 8 Norte 0 -- -- 84
2020-11-23 00:00:00 19.5 3 Norte 5 Norte 0 -- -- 83
2020-11-22 23:00:00 19.5 2 Norte 6 Noroeste 0 -- -- 80
2020-11-22 22:00:00 19.5 3 Norte 8 Norte 0 -- -- 71
2020-11-22 21:00:00 20 4 Norte 7 Norte 0 -- -- 66
2020-11-22 20:00:00 20.6 0 Calma 6 Norte 0 -- -- 71
2020-11-22 19:00:00 21.5 3 Sur 12 Sur 0 -- -- 79
2020-11-22 18:00:00 22 5 Sur 17 Sudeste 0 -- -- 73
2020-11-22 17:00:00 22.3 6 Sur 18 Sudeste 0 -- -- 70
2020-11-22 16:00:00 23.6 8 Sudeste 19 Sur 0 -- -- 67
2020-11-22 15:00:00 24.8 9 Sur 17 Sur 0 -- -- 65
2020-11-22 14:00:00 24.3 4 Sudeste 13 Sur 0 -- -- 66
2020-11-22 13:00:00 23.8 6 Sudeste 16 Este 0 -- -- 68
2020-11-22 12:00:00 23.5 7 Sudeste 15 Sudeste 0 -- -- 70
2020-11-22 11:00:00 23 7 Sur 18 Este 0 -- -- 72
2020-11-22 10:00:00 23.1 6 Sur 13 Sudeste 0 -- -- 71
2020-11-22 09:00:00 21.7 4 Sur 15 Sudeste 0 -- -- 71
2020-11-22 08:00:00 18.4 2 Norte 10 Sudoeste 0 -- -- 75
2020-11-22 07:00:00 17.9 5 Norte 9 Norte 0 -- -- 76
2020-11-22 06:00:00 17.8 4 Norte 9 Norte 0 -- -- 72
2020-11-22 05:00:00 17.9 5 Norte 9 Norte 0 -- -- 72
2020-11-22 04:00:00 18.1 4 Norte 8 Norte 0 -- -- 70
2020-11-22 03:00:00 18.6 4 Norte 8 Nordeste 0 -- -- 70
2020-11-22 02:00:00 18.8 5 Norte 9 Norte 0 -- -- 73
2020-11-22 01:00:00 19.1 3 Norte 7 Nordeste 0 -- -- 67
2020-11-22 00:00:00 21.1 2 Norte 14 Sudoeste 0 -- -- 63
2020-11-21 23:00:00 22.1 5 Sudoeste 10 Sudoeste 0 -- -- 54
2020-11-21 22:00:00 23.2 3 Sudoeste 15 Sur 0 -- -- 42
2020-11-21 21:00:00 23.9 5 Sur 22 Sudeste 0 -- -- 36
2020-11-21 20:00:00 23.7 8 Sur 27 Sur 0 -- -- 44
2020-11-21 19:00:00 23.7 8 Sur 26 Sur 0 -- -- 46
2020-11-21 18:00:00 23.7 4 Sudoeste 14 Oeste 0 -- -- 47
2020-11-21 17:00:00 24 5 Sudoeste 16 Sudeste 0 -- -- 48
2020-11-21 16:00:00 25.4 8 Sur 18 Sudeste 0 -- -- 52
2020-11-21 15:00:00 26 6 Sudeste 19 Sudeste 0 -- -- 53
2020-11-21 14:00:00 26 7 Sur 20 Sudoeste 0 -- -- 54
2020-11-21 13:00:00 25.7 6 Sur 17 Sudeste 0 -- -- 55
2020-11-21 12:00:00 25.1 8 Sudeste 16 Sur 0 -- -- 59
2020-11-21 11:00:00 24.8 8 Sudeste 15 Sudeste 0 -- -- 60
2020-11-21 10:00:00 24.4 9 Sudeste 16 Sudeste 0 -- -- 59
2020-11-21 09:00:00 21.7 3 Norte 9 Norte 0 -- -- 65
2020-11-21 08:00:00 19.2 3 Norte 10 Norte 0 -- -- 64
2020-11-21 07:00:00 19.4 4 Norte 12 Norte 0 -- -- 61
2020-11-21 06:00:00 20.8 5 Noroeste 12 Noroeste 0 -- -- 59
2020-11-21 05:00:00 19.1 6 Norte 11 Norte 0 -- -- 63
2020-11-21 04:00:00 18.9 5 Norte 10 Norte 0 -- -- 54
2020-11-21 03:00:00 19.8 5 Norte 11 Norte 0 -- -- 47
2020-11-21 02:00:00 18.8 5 Norte 10 Norte 0 -- -- 54
2020-11-21 01:00:00 20 6 Norte 12 Noroeste 0 -- -- 57
2020-11-21 00:00:00 20.8 5 Norte 11 Nordeste 0 -- -- 45
2020-11-20 23:00:00 19.8 0 Calma 8 Norte 0 -- -- 50
2020-11-20 22:00:00 20.1 4 Norte 9 Norte 0 -- -- 59
2020-11-20 21:00:00 20.3 5 Norte 8 Norte 0 -- -- 56
2020-11-20 20:00:00 20.8 4 Norte 8 Norte 0 -- -- 52
2020-11-20 19:00:00 22 0 Calma 6 Noroeste 0 -- -- 49
2020-11-20 18:00:00 22.8 0 Calma 5 Sur 0 -- -- 58
2020-11-20 17:00:00 23.3 4 Sudoeste 11 Sur 0 -- -- 73
2020-11-20 16:00:00 25.3 3 Sur 12 Sur 0 -- -- 63
2020-11-20 15:00:00 25.2 6 Sur 15 Sur 0 -- -- 66
2020-11-20 14:00:00 25.1 7 Sur 14 Sur 0 -- -- 65
2020-11-20 13:00:00 24.8 6 Sur 13 Sudeste 0 -- -- 67
2020-11-20 12:00:00 24.1 7 Sur 14 Sudeste 0 -- -- 69
2020-11-20 11:00:00 23.9 4 Sur 9 Sudeste 0 -- -- 67
2020-11-20 10:00:00 23.2 2 Sudeste 6 Este 0 -- -- 71
2020-11-20 09:00:00 21.3 4 Sur 8 Sur 0 -- -- 76
2020-11-20 08:00:00 21 3 Sur 10 Sudeste 0 -- -- 74
2020-11-20 07:00:00 21 3 Sudoeste 10 Sudoeste 0 -- -- 77
2020-11-20 06:00:00 20.7 3 Sur 10 Noroeste 0 -- -- 76
2020-11-20 05:00:00 20 0 Calma 10 Norte 0 -- -- 80
2020-11-20 04:00:00 19.4 5 Norte 9 Nordeste 0 -- -- 81
2020-11-20 03:00:00 19.3 4 Norte 8 Norte 0 -- -- 81
2020-11-20 02:00:00 19 4 Norte 9 Norte 0 -- -- 80
2020-11-20 01:00:00 19 4 Norte 7 Norte 0 -- -- 78
2020-11-20 00:00:00 19.6 3 Norte 7 Norte 0 -- -- 76
2020-11-19 23:00:00 21.1 2 Norte 5 Norte 0 -- -- 73
2020-11-19 22:00:00 21.3 2 Sudoeste 10 Este 0 -- -- 73
2020-11-19 21:00:00 21.2 4 Sur 15 Sudoeste 0 -- -- 76
2020-11-19 20:00:00 21.3 4 Sudeste 14 Sudeste 0 -- -- 74
2020-11-19 19:00:00 21.5 5 Sur 15 Sudeste 0 -- -- 74
2020-11-19 18:00:00 21.8 8 Sudeste 18 Sudeste 0 -- -- 74
2020-11-19 17:00:00 22.2 8 Sudeste 17 Sudeste 0 -- -- 74
2020-11-19 16:00:00 23.4 10 Sudeste 23 Sudeste 0 -- -- 67
2020-11-19 15:00:00 23.5 14 Sudeste 27 Sudeste 0 -- -- 68
2020-11-19 14:00:00 23.8 14 Sudeste 27 Sudeste 0 -- -- 66
2020-11-19 13:00:00 24.2 10 Sudeste 26 Sudeste 0 -- -- 65
2020-11-19 12:00:00 23.8 13 Sudeste 27 Sudeste 0 -- -- 67
2020-11-19 11:00:00 24.4 14 Sur 23 Sur 0 -- -- 61
2020-11-19 10:00:00 23.7 4 Norte 18 Noroeste 0 -- -- 65
2020-11-19 09:00:00 22.7 5 Norte 21 Nordeste 0 -- -- 65
2020-11-19 08:00:00 21.4 5 Norte 23 Norte 0 -- -- 71
2020-11-19 07:00:00 21.5 10 Norte 26 Nordeste 0 -- -- 73
2020-11-19 06:00:00 21.4 5 Norte 27 Norte 0 -- -- 75
2020-11-19 05:00:00 21.5 13 Norte 28 Norte 0 -- -- 73
2020-11-19 04:00:00 21.6 13 Norte 30 Nordeste 0 -- -- 73
2020-11-19 03:00:00 21.7 14 Norte 36 Norte 0 -- -- 72
2020-11-19 02:00:00 21.7 11 Norte 28 Nordeste 0 -- -- 73
2020-11-19 01:00:00 21.9 11 Norte 31 Norte 0 -- -- 72
2020-11-19 00:00:00 22 14 Norte 37 Nordeste 0 -- -- 72
2020-11-18 23:00:00 22.2 14 Norte 33 Norte 0 -- -- 70
2020-11-18 22:00:00 22.4 15 Norte 35 Norte 0 -- -- 72
2020-11-18 21:00:00 22.6 16 Norte 45 Noroeste 0 -- -- 71
2020-11-18 20:00:00 23 11 Norte 31 Norte 0 -- -- 61
2020-11-18 19:00:00 23.4 15 Norte 36 Norte 0 -- -- 64
2020-11-18 18:00:00 24.1 18 Norte 36 Norte 0 -- -- 65
2020-11-18 17:00:00 25.6 11 Norte 23 Norte 0 -- -- 57
2020-11-18 16:00:00 27.7 14 Nordeste 27 Norte 0 -- -- 54
2020-11-18 15:00:00 27.5 14 Nordeste 27 Nordeste 0 -- -- 57
2020-11-18 14:00:00 31.2 6 Sudeste 15 Nordeste 0 -- -- 39
2020-11-18 13:00:00 29.6 6 Este 14 Este 0 -- -- 39
2020-11-18 12:00:00 29.6 6 Sudoeste 9 Sur 0 -- -- 26
2020-11-18 11:00:00 27.6 3 Sur 7 Sur 0 -- -- 50
2020-11-18 10:00:00 26.7 4 Sur 6 Sur 0 -- -- 55
2020-11-18 09:00:00 24.1 3 Sur 10 Noroeste 0 -- -- 57
2020-11-18 08:00:00 20 4 Norte 9 Norte 0 -- -- 41
2020-11-18 07:00:00 19.6 4 Norte 8 Norte 0 -- -- 48
2020-11-18 06:00:00 20 2 Norte 5 Norte 0 -- -- 40
2020-11-18 05:00:00 21.3 4 Norte 7 Norte 0 -- -- 35
2020-11-18 04:00:00 21.2 2 Norte 5 Oeste 0 -- -- 36
2020-11-18 03:00:00 20.4 4 Sur 9 Norte 0 -- -- 44
2020-11-18 02:00:00 20.3 3 Norte 5 Norte 0 -- -- 40
2020-11-18 01:00:00 20.6 0 Calma 7 Norte 0 -- -- 41
2020-11-18 00:00:00 21.3 4 Norte 8 Norte 0 -- -- 38
2020-11-17 23:00:00 21 4 Norte 9 Norte 0 -- -- 42
2020-11-17 22:00:00 21.1 4 Norte 9 Norte 0 -- -- 43
2020-11-17 21:00:00 21.5 3 Norte 7 Norte 0 -- -- 46
2020-11-17 20:00:00 21.9 5 Norte 8 Norte 0 -- -- 49
2020-11-17 19:00:00 22.8 3 Norte 5 Norte 0 -- -- 53
2020-11-17 18:00:00 24.4 3 Sudoeste 6 Sudoeste 0 -- -- 58
2020-11-17 17:00:00 25.3 3 Sudoeste 10 Sur 0 -- -- 60
2020-11-17 16:00:00 27.6 5 Sur 12 Sudeste 0 -- -- 53
2020-11-17 15:00:00 29.5 4 Sur 12 Sur 0 -- -- 36
2020-11-17 14:00:00 30.7 6 Sur 12 Sur 0 -- -- 42
2020-11-17 13:00:00 29.5 5 Sur 10 Sur 0 -- -- 36
2020-11-17 12:00:00 29.3 6 Sur 11 Sudeste 0 -- -- 32
2020-11-17 11:00:00 29 5 Sur 9 Norte 0 -- -- 27
2020-11-17 10:00:00 24.7 3 Norte 8 Norte 0 -- -- 40
2020-11-17 09:00:00 23.6 6 Norte 10 Norte 0 -- -- 36
2020-11-17 08:00:00 21.8 3 Norte 10 Norte 0 -- -- 37
2020-11-17 07:00:00 20.2 6 Norte 9 Norte 0 -- -- 42
2020-11-17 06:00:00 19.5 4 Norte 7 Norte 0 -- -- 46
2020-11-17 05:00:00 19.9 3 Norte 8 Norte 0 -- -- 50
2020-11-17 04:00:00 19 3 Norte 9 Noroeste 0 -- -- 53
2020-11-17 03:00:00 19.3 5 Norte 8 Norte 0 -- -- 50
2020-11-17 02:00:00 19.2 2 Norte 5 Norte 0 -- -- 51
2020-11-17 01:00:00 19.9 0 Calma 8 Norte 0 -- -- 52
2020-11-17 00:00:00 20.1 5 Norte 9 Norte 0 -- -- 53
2020-11-16 23:00:00 19.3 5 Norte 9 Norte 0 -- -- 60
2020-11-16 22:00:00 19.9 5 Norte 8 Norte 0 -- -- 62
2020-11-16 21:00:00 20.3 5 Norte 8 Norte 0 -- -- 66
2020-11-16 20:00:00 21 4 Norte 7 Norte 0 -- -- 72
2020-11-16 19:00:00 22.1 4 Norte 9 Sudoeste 0 -- -- 73
2020-11-16 18:00:00 23.1 4 Sudoeste 7 Sudoeste 0 -- -- 77
2020-11-16 17:00:00 23.9 2 Sudoeste 6 Sur 0 -- -- 71
2020-11-16 16:00:00 25.3 4 Sudeste 11 Sur 0 -- -- 73
2020-11-16 15:00:00 25.6 7 Sur 19 Sur 0 -- -- 72
2020-11-16 14:00:00 25.8 9 Sur 16 Sur 0 -- -- 72
2020-11-16 13:00:00 26.3 5 Sur 12 Sur 0 -- -- 64
2020-11-16 12:00:00 25.7 5 Sur 11 Sur 0 -- -- 74
2020-11-16 11:00:00 25.3 5 Sur 9 Sur 0 -- -- 70
2020-11-16 10:00:00 24.7 4 Sur 8 Sudeste 0 -- -- 69
2020-11-16 09:00:00 21.4 4 Norte 9 Norte 0 -- -- 64
2020-11-16 08:00:00 18.4 5 Norte 9 Norte 0 -- -- 72
2020-11-16 07:00:00 17.8 5 Norte 9 Norte 0 -- -- 74
2020-11-16 06:00:00 18.2 6 Norte 10 Norte 0 -- -- 70
2020-11-16 05:00:00 19.2 4 Norte 12 Nordeste 0 -- -- 73
2020-11-16 04:00:00 19 5 Norte 10 Norte 0 -- -- 83
2020-11-16 03:00:00 19.4 6 Norte 10 Nordeste 0 -- -- 85
2020-11-16 02:00:00 19.4 5 Noroeste 9 Norte 0 -- -- 85
2020-11-16 01:00:00 19.7 5 Norte 9 Norte 0 -- -- 87
2020-11-16 00:00:00 20.2 5 Norte 9 Norte 0 -- -- 85
2020-11-15 23:00:00 21.1 3 Noroeste 8 Norte 0 -- -- 85
2020-11-15 22:00:00 21.7 2 Norte 6 Norte 0 -- -- 82
2020-11-15 21:00:00 22.1 0 Calma 11 Sudeste 0 -- -- 84
2020-11-15 20:00:00 22.8 5 Sur 16 Sudeste 0 -- -- 86
2020-11-15 19:00:00 23 5 Sur 9 Sudeste 0 -- -- 84
2020-11-15 18:00:00 23.3 4 Sur 9 Sur 0 -- -- 84
2020-11-15 17:00:00 24.2 3 Sudeste 11 Sudeste 0 -- -- 79
2020-11-15 16:00:00 25.6 6 Sur 13 Sudeste 0 -- -- 74
2020-11-15 15:00:00 25.4 6 Sur 19 Sur 0 -- -- 76
2020-11-15 14:00:00 24.8 9 Sudeste 20 Sudeste 0 -- -- 79
2020-11-15 13:00:00 24.5 7 Sudeste 17 Este 0 -- -- 79
2020-11-15 12:00:00 25.8 7 Sur 13 Sur 0 -- -- 72
2020-11-15 11:00:00 25.1 5 Sudeste 17 Sudeste 0 -- -- 75
2020-11-15 10:00:00 25 6 Sur 14 Sur 0 -- -- 72
2020-11-15 09:00:00 22.9 5 Nordeste 9 Norte 0 -- -- 78
2020-11-15 08:00:00 20.8 5 Norte 9 Norte 0 -- -- 83
2020-11-15 07:00:00 21.3 3 Norte 9 Nordeste 0 -- -- 81
2020-11-15 06:00:00 20.7 4 Norte 10 Norte 0 -- -- 84
2020-11-15 05:00:00 19.5 4 Norte 10 Norte 0 -- -- 82
2020-11-15 04:00:00 19.5 4 Norte 10 Norte 0 -- -- 77
2020-11-15 03:00:00 20.1 5 Norte 10 Norte 0 -- -- 77
2020-11-15 02:00:00 20.5 3 Nordeste 10 Norte 0 -- -- 80
2020-11-15 01:00:00 20.9 3 Norte 12 Sur 0 -- -- 82
2020-11-15 00:00:00 20.7 2 Noroeste 9 Norte 0 -- -- 81
2020-11-14 23:00:00 21.2 4 Norte 10 Norte 0 -- -- 81
2020-11-14 22:00:00 22.3 4 Norte 8 Norte 0 -- -- 80
2020-11-14 21:00:00 23 3 Norte 8 Norte 0 -- -- 81
2020-11-14 20:00:00 23 0 Calma 9 Noroeste 0 -- -- 86
2020-11-14 19:00:00 23.3 4 Sudeste 10 Sudeste 0 -- -- 83
2020-11-14 18:00:00 23.7 5 Sudeste 14 Sur 0 -- -- 81
2020-11-14 17:00:00 24.2 6 Sudeste 19 Sur 0 -- -- 79
2020-11-14 16:00:00 26 7 Sur 15 Sudeste 0 -- -- 70
2020-11-14 15:00:00 26.1 6 Nordeste 22 Este 0 -- -- 68
2020-11-14 14:00:00 27.2 7 Sudeste 21 Nordeste 0 -- -- 61
2020-11-14 13:00:00 27.2 8 Nordeste 21 Norte 0 -- -- 43
2020-11-14 12:00:00 27 8 Sudeste 15 Sur 0 -- -- 63
2020-11-14 11:00:00 25.4 4 Este 16 Sur 0 -- -- 60
2020-11-14 10:00:00 24.6 3 Norte 13 Sudoeste 0 -- -- 56
2020-11-14 09:00:00 20.9 2 Norte 10 Noroeste 0 -- -- 51
2020-11-14 08:00:00 19.8 4 Norte 11 Norte 0 -- -- 52
2020-11-14 07:00:00 20.3 3 Norte 10 Norte 0 -- -- 49
2020-11-14 06:00:00 20.5 5 Norte 11 Norte 0 -- -- 49
2020-11-14 05:00:00 21.4 5 Norte 10 Norte 0 -- -- 48
2020-11-14 04:00:00 23 4 Norte 15 Noroeste 0 -- -- 43
2020-11-14 03:00:00 25.3 6 Norte 22 Nordeste 0 -- -- 37
2020-11-14 02:00:00 25.2 5 Nordeste 26 Oeste 0 -- -- 37
2020-11-14 01:00:00 25.3 8 Oeste 24 Sudoeste 0 -- -- 38
2020-11-14 00:00:00 25.1 6 Norte 18 Noroeste 0 -- -- 36
2020-11-13 23:00:00 24.4 3 Norte 11 Norte 0 -- -- 38
2020-11-13 22:00:00 25.3 2 Oeste 13 Noroeste 0 -- -- 35
2020-11-13 21:00:00 23.8 3 Norte 8 Nordeste 0 -- -- 39
2020-11-13 20:00:00 23.7 3 Norte 12 Sur 0 -- -- 43
2020-11-13 19:00:00 24.6 3 Norte 13 Noroeste 0 -- -- 41
2020-11-13 18:00:00 25.3 2 Noroeste 20 Norte 0 -- -- 41
2020-11-13 17:00:00 26.4 6 Noroeste 20 Oeste 0 -- -- 39
2020-11-13 16:00:00 26.8 5 Norte 22 Norte 0 -- -- 42
2020-11-13 15:00:00 26.5 8 Sudoeste 22 Oeste 0 -- -- 45
2020-11-13 14:00:00 23.5 3 Oeste 16 Oeste 0 -- -- 73
2020-11-13 13:00:00 23.1 4 Nordeste 12 Sudoeste 0 -- -- 79
2020-11-13 12:00:00 22.8 3 Sudoeste 8 Sur 0 -- -- 82
2020-11-13 11:00:00 22.5 0 Calma 5 Noroeste 0 -- -- 82
2020-11-13 10:00:00 21.6 0 Calma 6 Norte 0 -- -- 74
2020-11-13 09:00:00 21 2 Norte 8 Norte 0 -- -- 74
2020-11-13 08:00:00 20.6 0 Calma 10 Norte 0 -- -- 76
2020-11-13 07:00:00 20.6 4 Oeste 9 Sur 0 -- -- 80
2020-11-13 06:00:00 20.1 3 Norte 8 Norte 0 -- -- 84
2020-11-13 05:00:00 19.8 5 Norte 7 Norte 0 -- -- 84
2020-11-13 04:00:00 20 4 Norte 6 Norte 0 -- -- 85
2020-11-13 03:00:00 20.1 4 Norte 7 Norte 0 -- -- 86
2020-11-13 02:00:00 20.3 3 Norte 6 Noroeste 0 -- -- 87
2020-11-13 01:00:00 20.7 4 Norte 5 Norte 0 -- -- 85
2020-11-13 00:00:00 20.5 0 Calma 8 Norte 0 -- -- 84
2020-11-12 23:00:00 20.3 5 Norte 7 Noroeste 0 -- -- 83
2020-11-12 22:00:00 20.4 3 Norte 10 Norte 0 -- -- 84
2020-11-12 21:00:00 20.2 3 Norte 8 Norte 0 -- -- 85
2020-11-12 20:00:00 20.6 5 Norte 8 Norte 0 -- -- 84
2020-11-12 19:00:00 21.7 2 Sur 8 Sudeste 0 -- -- 83
2020-11-12 18:00:00 22.1 4 Sur 8 Sudoeste 0 -- -- 81
2020-11-12 17:00:00 22.6 3 Sur 9 Sur 0 -- -- 78
2020-11-12 16:00:00 23.1 4 Sur 9 Sur 0 -- -- 75
2020-11-12 15:00:00 23.3 5 Sur 12 Sur 0 -- -- 74
2020-11-12 14:00:00 23.1 5 Sur 10 Sur 0 -- -- 73
2020-11-12 13:00:00 23 4 Sudeste 10 Sur 0 -- -- 73
2020-11-12 12:00:00 23.1 4 Sudeste 10 Sur 0 -- -- 73
2020-11-12 11:00:00 22.9 4 Sur 8 Sur 0 -- -- 74
2020-11-12 10:00:00 22.1 0 Calma 5 Norte 0 -- -- 74
2020-11-12 09:00:00 20.4 2 Norte 7 Norte 0 -- -- 76
2020-11-12 08:00:00 19.2 3 Norte 7 Norte 0 -- -- 79
2020-11-12 07:00:00 19.3 3 Norte 6 Norte 0 -- -- 78
2020-11-12 06:00:00 19.3 4 Norte 9 Norte 0 -- -- 77
2020-11-12 05:00:00 18.9 4 Norte 6 Norte 0 -- -- 79
2020-11-12 04:00:00 19.1 4 Norte 6 Norte 0 -- -- 79
2020-11-12 03:00:00 19.5 4 Norte 8 Norte 0 -- -- 78
2020-11-12 02:00:00 20.2 0 Calma 6 Norte 0 -- -- 78
2020-11-12 01:00:00 20.4 0 Calma 5 Noroeste 0 -- -- 72
2020-11-12 00:00:00 20.4 2 Norte 5 Norte 0 -- -- 71
2020-11-11 23:00:00 20.8 0 Calma 16 Norte 0 -- -- 70
2020-11-11 22:00:00 20.9 3 Norte 17 Norte 0 -- -- 70
2020-11-11 21:00:00 21 10 Norte 26 Noroeste 0 -- -- 72
2020-11-11 20:00:00 21.1 9 Norte 27 Nordeste 0 -- -- 72
2020-11-11 19:00:00 21.3 8 Norte 20 Norte 0 -- -- 71
2020-11-11 18:00:00 22 3 Nordeste 21 Norte 0 -- -- 66
2020-11-11 17:00:00 22.4 6 Nordeste 18 Sur 0 -- -- 68
2020-11-11 16:00:00 22 12 Sudeste 23 Sudeste 0 -- -- 72
2020-11-11 15:00:00 22.8 7 Sudeste 26 Sudeste 0 -- -- 69
2020-11-11 14:00:00 23.5 7 Sudeste 19 Sudeste 0 -- -- 66
2020-11-11 13:00:00 22.7 6 Sur 17 Sudeste 0 -- -- 69
2020-11-11 12:00:00 22.6 7 Sudeste 18 Sudeste 0 -- -- 69
2020-11-11 11:00:00 22.4 8 Sudeste 19 Sudeste 0 -- -- 69
2020-11-11 10:00:00 21.8 2 Sur 5 Sudoeste 0 -- -- 68
2020-11-11 09:00:00 20.1 3 Norte 8 Norte 0 -- -- 75
2020-11-11 08:00:00 19 3 Norte 6 Norte 0 -- -- 80
2020-11-11 07:00:00 19.5 4 Norte 7 Noroeste 0 -- -- 78
2020-11-11 06:00:00 19 3 Norte 7 Norte 0 -- -- 79
2020-11-11 05:00:00 18.2 4 Norte 10 Norte 0 -- -- 80
2020-11-11 04:00:00 18.4 4 Norte 10 Norte 0 -- -- 79
2020-11-11 03:00:00 19.2 4 Norte 6 Norte 0 -- -- 76
2020-11-11 02:00:00 19.9 2 Norte 6 Norte 0 -- -- 75
2020-11-11 01:00:00 19.6 2 Norte 9 Norte 0 -- -- 76
2020-11-11 00:00:00 19.1 2 Nordeste 11 Norte 0 -- -- 76
2020-11-10 23:00:00 18.9 4 Norte 9 Norte 0 -- -- 77
2020-11-10 22:00:00 19.6 3 Norte 8 Norte 0 -- -- 74
2020-11-10 21:00:00 20.2 3 Norte 12 Sur 0 -- -- 71
2020-11-10 20:00:00 20.9 0 Calma 12 Sur 0 -- -- 69
2020-11-10 19:00:00 21.1 6 Sudeste 17 Este 0 -- -- 69
2020-11-10 18:00:00 21.5 9 Sudeste 15 Sur 0 -- -- 70
2020-11-10 17:00:00 21.9 6 Sur 17 Sudeste 0 -- -- 67
2020-11-10 16:00:00 23.2 5 Sur 17 Sudeste 0 -- -- 61
2020-11-10 15:00:00 23.4 8 Sudeste 21 Sudeste 0 -- -- 57
2020-11-10 14:00:00 23.2 5 Sur 24 Sudeste 0 -- -- 59
2020-11-10 13:00:00 22.8 9 Sudeste 24 Sur 0 -- -- 61
2020-11-10 12:00:00 23.3 11 Sudeste 23 Sudeste 0 -- -- 59
2020-11-10 11:00:00 23.3 10 Sudeste 26 Sudeste 0 -- -- 62
2020-11-10 10:00:00 22.8 9 Sudeste 23 Sur 0 -- -- 64
2020-11-10 09:00:00 22.3 8 Sudeste 26 Sur 0 -- -- 65
2020-11-10 08:00:00 20.9 7 Sur 21 Sudeste 0 -- -- 70
2020-11-10 07:00:00 20.6 5 Sudoeste 15 Sur 0 -- -- 71
2020-11-10 06:00:00 20.7 4 Sur 15 Oeste 0 -- -- 72
2020-11-10 05:00:00 20.7 4 Noroeste 21 Sudeste 0 -- -- 69
2020-11-10 04:00:00 20.7 5 Sudoeste 27 Sudeste 0 -- -- 71
2020-11-10 03:00:00 20.8 6 Sur 24 Sur 0 -- -- 72
2020-11-10 02:00:00 20.9 6 Sudoeste 21 Sudoeste 0 -- -- 71
2020-11-10 01:00:00 21 9 Sur 25 Sur 0 -- -- 72
2020-11-10 00:00:00 21.1 9 Sur 29 Sudeste 0 -- -- 74
2020-11-09 23:00:00 21 9 Sur 28 Sudoeste 0 -- -- 72
2020-11-09 22:00:00 20.9 4 Sur 23 Sur 0 -- -- 73
2020-11-09 21:00:00 20.8 6 Sur 17 Sur 0 -- -- 73
2020-11-09 20:00:00 20.7 8 Sur 19 Sudoeste 0 -- -- 74
2020-11-09 19:00:00 21.7 5 Sudeste 22 Sur 0 -- -- 71
2020-11-09 18:00:00 22.1 3 Norte 15 Sur 0 -- -- 66
2020-11-09 17:00:00 22.4 5 Norte 15 Norte 0 -- -- 63
2020-11-09 16:00:00 23.1 9 Norte 22 Noroeste 0 -- -- 62
2020-11-09 15:00:00 23.4 6 Norte 20 Sudoeste 0 -- -- 60
2020-11-09 14:00:00 23.4 6 Norte 27 Sur 0 -- -- 62
2020-11-09 13:00:00 23.7 4 Noroeste 21 Sur 0 -- -- 62
2020-11-09 12:00:00 23.3 5 Oeste 21 Noroeste 0 -- -- 63
2020-11-09 11:00:00 23.3 7 Norte 16 Norte 0 -- -- 62
2020-11-09 10:00:00 22.5 8 Norte 18 Noroeste 0 -- -- 65
2020-11-09 09:00:00 21.7 5 Norte 10 Nordeste 0 -- -- 65
2020-11-09 08:00:00 18.8 0 Calma 8 Norte 0 -- -- 77
2020-11-09 07:00:00 18.6 3 Norte 6 Norte 0 -- -- 78
2020-11-09 06:00:00 18.8 2 Norte 11 Norte 0 -- -- 77
2020-11-09 05:00:00 19.2 6 Norte 14 Norte 0 -- -- 75
2020-11-09 04:00:00 18.6 0 Calma 3 Nordeste 0 -- -- 85
2020-11-09 03:00:00 19.3 3 Norte 6 Norte 0.2 -- -- 80
2020-11-09 02:00:00 19.6 2 Norte 12 Norte 0 -- -- 73
2020-11-09 01:00:00 19.1 5 Norte 11 Norte 0 -- -- 75
2020-11-09 00:00:00 18.8 3 Norte 8 Norte 0 -- -- 75
2020-11-08 23:00:00 20.2 4 Norte 21 Norte 0 -- -- 69
2020-11-08 22:00:00 20.5 3 Norte 18 Norte 0 -- -- 69
2020-11-08 21:00:00 20.4 6 Norte 17 Noroeste 0 -- -- 69
2020-11-08 20:00:00 20.4 5 Norte 21 Norte 0 -- -- 68
2020-11-08 19:00:00 20.6 7 Norte 15 Norte 0 -- -- 67
2020-11-08 18:00:00 21.1 7 Norte 17 Nordeste 0 -- -- 62
2020-11-08 17:00:00 21.8 10 Norte 24 Nordeste 0 -- -- 61
2020-11-08 16:00:00 22.7 10 Norte 22 Norte 0 -- -- 56
2020-11-08 15:00:00 23.1 9 Nordeste 21 Nordeste 0 -- -- 57
2020-11-08 14:00:00 23.4 8 Norte 22 Norte 0 -- -- 57
2020-11-08 13:00:00 23.9 6 Norte 21 Noroeste 0 -- -- 56
2020-11-08 12:00:00 24.9 8 Norte 17 Nordeste 0 -- -- 53
2020-11-08 11:00:00 24 8 Norte 18 Norte 0 -- -- 54
2020-11-08 10:00:00 22.9 9 Norte 19 Nordeste 0 -- -- 60
2020-11-08 09:00:00 21.8 7 Norte 23 Norte 0 -- -- 64
2020-11-08 08:00:00 20.2 8 Norte 19 Norte 0 -- -- 70
2020-11-08 07:00:00 19.9 6 Norte 13 Norte 0 -- -- 72
2020-11-08 06:00:00 19.5 0 Calma 5 Nordeste 0 -- -- 75
2020-11-08 05:00:00 19.6 2 Norte 9 Norte 0 -- -- 75
2020-11-08 04:00:00 19 0 Calma 4 Norte 0 -- -- 78
2020-11-08 03:00:00 19.2 2 Norte 6 Norte 0 -- -- 78
2020-11-08 02:00:00 18.8 4 Norte 9 Norte 0 -- -- 79
2020-11-08 01:00:00 19.2 3 Noroeste 9 Norte 0 -- -- 78
2020-11-08 00:00:00 19 4 Norte 8 Norte 0 -- -- 79
2020-11-07 23:00:00 19.5 4 Norte 9 Nordeste 0 -- -- 77
2020-11-07 22:00:00 19.8 4 Norte 7 Norte 0 -- -- 76
2020-11-07 21:00:00 20.6 3 Norte 9 Norte 0 -- -- 75
2020-11-07 20:00:00 21.1 3 Norte 9 Nordeste 0 -- -- 73
2020-11-07 19:00:00 21.8 4 Nordeste 8 Nordeste 0 -- -- 72
2020-11-07 18:00:00 22.3 3 Sudeste 11 Sudeste 0 -- -- 71
2020-11-07 17:00:00 22.8 4 Sur 13 Sur 0 -- -- 69
2020-11-07 16:00:00 23.5 6 Sudeste 16 Sur 0 -- -- 66
2020-11-07 15:00:00 24.9 6 Sur 21 Sudeste 0 -- -- 59
2020-11-07 14:00:00 24.9 8 Sudeste 14 Sur 0 -- -- 60
2020-11-07 13:00:00 24.2 9 Sur 18 Sur 0 -- -- 63
2020-11-07 12:00:00 23.9 6 Sur 15 Sur 0 -- -- 63
2020-11-07 11:00:00 23.7 4 Sur 12 Sur 0 -- -- 62
2020-11-07 10:00:00 23.3 5 Sur 13 Sudeste 0 -- -- 64
2020-11-07 09:00:00 21.7 0 Calma 7 Norte 0 -- -- 66
2020-11-07 08:00:00 19.1 4 Norte 6 Norte 0 -- -- 75
2020-11-07 07:00:00 18.9 4 Norte 7 Norte 0 -- -- 75
2020-11-07 06:00:00 19 5 Norte 8 Norte 0 -- -- 75
2020-11-07 05:00:00 19 5 Norte 7 Norte 0 -- -- 75
2020-11-07 04:00:00 18.9 3 Norte 8 Norte 0 -- -- 74
2020-11-07 03:00:00 19 4 Norte 8 Norte 0 -- -- 73
2020-11-07 02:00:00 19.1 3 Norte 9 Noroeste 0 -- -- 70
2020-11-07 01:00:00 19.6 4 Norte 7 Norte 0 -- -- 68
2020-11-07 00:00:00 19.7 4 Norte 7 Norte 0 -- -- 66
2020-11-06 23:00:00 20 4 Norte 15 Norte 0 -- -- 66
2020-11-06 22:00:00 20.8 7 Norte 21 Norte 0 -- -- 64
2020-11-06 21:00:00 20.9 6 Norte 22 Norte 0 -- -- 63
2020-11-06 20:00:00 21.2 10 Norte 26 Norte 0 -- -- 62
2020-11-06 19:00:00 21.5 12 Norte 27 Norte 0 -- -- 61
2020-11-06 18:00:00 21.8 9 Norte 21 Norte 0 -- -- 60
2020-11-06 17:00:00 22.8 8 Norte 26 Norte 0 -- -- 58
2020-11-06 16:00:00 24.1 13 Norte 36 Norte 0 -- -- 55
2020-11-06 15:00:00 24.6 15 Norte 32 Nordeste 0 -- -- 53
2020-11-06 14:00:00 25.4 14 Norte 36 Nordeste 0 -- -- 50
2020-11-06 13:00:00 25.8 8 Sur 28 Norte 0 -- -- 47
2020-11-06 12:00:00 24.9 5 Noroeste 37 Sudoeste 0 -- -- 48
2020-11-06 11:00:00 23.2 6 Noroeste 28 Nordeste 0 -- -- 58
2020-11-06 10:00:00 21.9 12 Norte 36 Sudoeste 0 -- -- 63
2020-11-06 09:00:00 22.1 8 Sudeste 30 Sur 0 -- -- 62
2020-11-06 08:00:00 17.8 4 Norte 12 Norte 0 -- -- 75
2020-11-06 07:00:00 16.9 4 Norte 12 Norte 0 -- -- 78
2020-11-06 06:00:00 17.6 5 Norte 12 Norte 0 -- -- 76
2020-11-06 05:00:00 17.7 6 Norte 10 Norte 0 -- -- 76
2020-11-06 04:00:00 19.1 4 Norte 19 Norte 0 -- -- 68
2020-11-06 03:00:00 17.6 6 Norte 10 Norte 0 -- -- 76
2020-11-06 02:00:00 18.2 4 Norte 16 Norte 0 -- -- 75
2020-11-06 01:00:00 18 3 Norte 9 Norte 0 -- -- 73
2020-11-06 00:00:00 17.7 4 Norte 8 Norte 0 -- -- 72
2020-11-05 23:00:00 18.4 5 Noroeste 9 Noroeste 0 -- -- 67
2020-11-05 22:00:00 18.3 6 Norte 13 Norte 0 -- -- 69
2020-11-05 21:00:00 17.9 0 Calma 8 Norte 0 -- -- 74
2020-11-05 20:00:00 19 3 Noroeste 9 Nordeste 0 -- -- 66
2020-11-05 19:00:00 20.4 3 Norte 13 Norte 0 -- -- 61
2020-11-05 18:00:00 20.9 6 Norte 10 Nordeste 0 -- -- 61
2020-11-05 17:00:00 21.2 6 Nordeste 17 Nordeste 0 -- -- 61
2020-11-05 16:00:00 21.8 8 Norte 17 Norte 0 -- -- 62
2020-11-05 15:00:00 21.8 6 Norte 19 Norte 0 -- -- 59
2020-11-05 14:00:00 22 6 Este 21 Sur 0 -- -- 59
2020-11-05 13:00:00 22.1 9 Sur 19 Sur 0 -- -- 61
2020-11-05 12:00:00 22.2 4 Este 17 Norte 0 -- -- 59
2020-11-05 11:00:00 22.2 8 Este 24 Sudeste 0 -- -- 63
2020-11-05 10:00:00 22.5 4 Este 17 Sur 0 -- -- 52
2020-11-05 09:00:00 19.8 3 Noroeste 18 Noroeste 0 -- -- 60
2020-11-05 08:00:00 19 9 Norte 28 Norte 0 -- -- 65
2020-11-05 07:00:00 18.4 7 Norte 17 Norte 0 -- -- 69
2020-11-05 06:00:00 18.2 6 Norte 19 Noroeste 0 -- -- 69
2020-11-05 05:00:00 18.7 8 Norte 18 Norte 0 -- -- 67
2020-11-05 04:00:00 18.3 3 Norte 16 Noroeste 0 -- -- 69
2020-11-05 03:00:00 18.1 7 Norte 23 Norte 0 -- -- 78
2020-11-05 02:00:00 18.3 7 Norte 19 Norte 0 -- -- 77
2020-11-05 01:00:00 17.9 5 Norte 10 Noroeste 0.2 -- -- 82
2020-11-05 00:00:00 18 2 Norte 19 Norte 0 -- -- 82
2020-11-04 23:00:00 18.3 6 Norte 17 Nordeste 0 -- -- 80
2020-11-04 22:00:00 18.3 2 Sudoeste 9 Este 0 -- -- 80
2020-11-04 21:00:00 18.6 2 Norte 12 Norte 0 -- -- 82
2020-11-04 20:00:00 18.7 3 Norte 8 Noroeste 0 -- -- 83
2020-11-04 19:00:00 18.9 4 Norte 19 Norte 0 -- -- 82
2020-11-04 18:00:00 18.9 3 Norte 16 Norte 0.6 -- -- 85
2020-11-04 17:00:00 19.4 4 Norte 23 Noroeste 0.2 -- -- 85
2020-11-04 16:00:00 19.4 4 Nordeste 16 Nordeste 1.8 -- -- 87
2020-11-04 15:00:00 19.9 6 Norte 15 Norte 4.6 -- -- 85
2020-11-04 14:00:00 20 4 Nordeste 15 Noroeste 3.8 -- -- 85
2020-11-04 13:00:00 20.5 3 Norte 12 Noroeste 2.4 -- -- 81
2020-11-04 12:00:00 21.2 8 Sur 17 Sur 0.4 -- -- 77
2020-11-04 11:00:00 21.4 5 Nordeste 22 Sur 0.6 -- -- 77
2020-11-04 10:00:00 20.9 4 Norte 10 Nordeste 1 -- -- 83
2020-11-04 09:00:00 21.3 6 Sur 24 Sudeste 0 -- -- 74
2020-11-04 08:00:00 21.3 10 Sur 23 Sur 0 -- -- 74
2020-11-04 07:00:00 21.4 8 Sudoeste 19 Sur 0 -- -- 72
2020-11-04 06:00:00 21.8 5 Noroeste 13 Norte 0 -- -- 70
2020-11-04 05:00:00 21.9 5 Nordeste 31 Sur 0 -- -- 69
2020-11-04 04:00:00 21.9 5 Norte 17 Norte 0 -- -- 67
2020-11-04 03:00:00 22 4 Oeste 20 Noroeste 0 -- -- 69
2020-11-04 02:00:00 22.1 5 Norte 22 Sudeste 0 -- -- 70
2020-11-04 01:00:00 22 6 Sur 29 Sur 0 -- -- 69
2020-11-04 00:00:00 22.1 10 Sur 32 Sudeste 0 -- -- 68
2020-11-03 23:00:00 22.2 11 Sur 28 Sudeste 0 -- -- 69
2020-11-03 22:00:00 22.4 11 Sur 28 Sur 0 -- -- 67
2020-11-03 21:00:00 22.5 2 Norte 20 Noroeste 0 -- -- 65
2020-11-03 20:00:00 22.6 5 Nordeste 20 Norte 0 -- -- 65
2020-11-03 19:00:00 22.6 6 Norte 23 Norte 0 -- -- 66
2020-11-03 18:00:00 22.8 7 Norte 26 Noroeste 0 -- -- 66
2020-11-03 17:00:00 23.5 9 Norte 27 Norte 0 -- -- 63
2020-11-03 16:00:00 24.9 12 Norte 26 Norte 0 -- -- 58
2020-11-03 15:00:00 25.2 10 Norte 25 Noroeste 0 -- -- 56
2020-11-03 14:00:00 25 6 Norte 23 Norte 0 -- -- 59
2020-11-03 13:00:00 24.6 5 Norte 20 Norte 0 -- -- 61
2020-11-03 12:00:00 24.7 3 Oeste 21 Norte 0 -- -- 57
2020-11-03 11:00:00 24.6 9 Norte 23 Norte 0 -- -- 60
2020-11-03 10:00:00 24.9 11 Norte 28 Norte 0 -- -- 59
2020-11-03 09:00:00 23.7 9 Norte 22 Norte 0 -- -- 62
2020-11-03 08:00:00 21.9 6 Norte 23 Noroeste 0 -- -- 67
2020-11-03 07:00:00 21.7 5 Norte 20 Norte 0 -- -- 68
2020-11-03 06:00:00 21.6 5 Norte 20 Norte 0 -- -- 70
2020-11-03 05:00:00 21.6 6 Norte 23 Nordeste 0 -- -- 68
2020-11-03 04:00:00 21.5 5 Norte 12 Nordeste 0 -- -- 73
2020-11-03 03:00:00 21.6 7 Norte 19 Nordeste 0 -- -- 71
2020-11-03 02:00:00 22 3 Norte 22 Norte 0 -- -- 71
2020-11-03 01:00:00 22.2 5 Norte 21 Norte 0 -- -- 70
2020-11-03 00:00:00 22.2 8 Norte 22 Norte 0 -- -- 71
2020-11-02 23:00:00 22.1 5 Norte 19 Nordeste 0 -- -- 71
2020-11-02 22:00:00 22.2 7 Norte 19 Norte 0 -- -- 71
2020-11-02 21:00:00 22 7 Norte 27 Norte 0 -- -- 70
2020-11-02 20:00:00 22.1 8 Norte 24 Norte 0 -- -- 70
2020-11-02 19:00:00 22.2 9 Norte 25 Nordeste 0 -- -- 69
2020-11-02 18:00:00 22.7 8 Norte 24 Noroeste 0 -- -- 69
2020-11-02 17:00:00 23.3 10 Norte 26 Noroeste 0 -- -- 66
2020-11-02 16:00:00 23.9 10 Norte 27 Norte 0 -- -- 65
2020-11-02 15:00:00 23.8 11 Norte 24 Noroeste 0 -- -- 64
2020-11-02 14:00:00 24.3 14 Norte 32 Norte 0 -- -- 59
2020-11-02 13:00:00 24.8 14 Norte 30 Norte 0 -- -- 58
2020-11-02 12:00:00 24.9 12 Norte 26 Norte 0 -- -- 58
2020-11-02 11:00:00 24 13 Norte 24 Norte 0 -- -- 60
2020-11-02 10:00:00 23.6 8 Norte 23 Norte 0 -- -- 64
2020-11-02 09:00:00 22.5 8 Norte 20 Noroeste 0 -- -- 67
2020-11-02 08:00:00 21.6 8 Norte 20 Nordeste 0 -- -- 70
2020-11-02 07:00:00 21.6 8 Norte 32 Norte 0 -- -- 69
2020-11-02 06:00:00 21.7 9 Norte 19 Nordeste 0 -- -- 69
2020-11-02 05:00:00 21.2 5 Norte 15 Noroeste 0 -- -- 65
2020-11-02 04:00:00 21.5 6 Norte 16 Nordeste 0 -- -- 66
2020-11-02 03:00:00 21.6 6 Norte 16 Norte 0 -- -- 60
2020-11-02 02:00:00 20 4 Norte 9 Norte 0 -- -- 60
2020-11-02 01:00:00 19.8 4 Norte 11 Nordeste 0 -- -- 46
2020-11-02 00:00:00 20.2 5 Norte 11 Norte 0 -- -- 44
2020-11-01 23:00:00 20.4 6 Norte 10 Norte 0 -- -- 43
2020-11-01 22:00:00 21.1 4 Norte 12 Sudoeste 0 -- -- 42
2020-11-01 21:00:00 21.8 4 Norte 11 Norte 0 -- -- 38
2020-11-01 20:00:00 22.9 3 Norte 11 Sudoeste 0 -- -- 40
2020-11-01 19:00:00 24.5 6 Sur 19 Sur 0 -- -- 49
2020-11-01 18:00:00 26.3 11 Sur 24 Sur 0 -- -- 27
2020-11-01 17:00:00 25.7 12 Sur 22 Sudeste 0 -- -- 28
2020-11-01 16:00:00 26.3 11 Sur 24 Sudoeste 0 -- -- 52
2020-11-01 15:00:00 27 12 Sur 21 Sudeste 0 -- -- 48
2020-11-01 14:00:00 27 10 Sur 16 Sur 0 -- -- 51
2020-11-01 13:00:00 26.9 11 Sur 22 Sur 0 -- -- 46
2020-11-01 12:00:00 26.8 9 Sur 22 Sur 0 -- -- 52
2020-11-01 11:00:00 27.2 11 Sur 26 Sur 0 -- -- 45
2020-11-01 10:00:00 26.3 14 Sur 22 Sur 0 -- -- 45
2020-11-01 09:00:00 24.2 0 Calma 9 Norte 0 -- -- 58
2020-11-01 08:00:00 21.3 3 Norte 15 Sudoeste 0 -- -- 53
2020-11-01 07:00:00 23.6 9 Sur 23 Sur 0 -- -- 58
2020-11-01 06:00:00 22.7 4 Noroeste 17 Sudoeste 0 -- -- 49
2020-11-01 05:00:00 20.6 4 Norte 13 Noroeste 0 -- -- 43
2020-11-01 04:00:00 20.2 5 Norte 9 Norte 0 -- -- 40
2020-11-01 03:00:00 20 5 Norte 9 Norte 0 -- -- 37
2020-11-01 02:00:00 20.3 5 Norte 9 Norte 0 -- -- 36
2020-11-01 01:00:00 21.2 5 Norte 10 Norte 0 -- -- 36
2020-11-01 00:00:00 20.9 5 Norte 9 Noroeste 0 -- -- 38
2020-10-31 23:00:00 21 5 Norte 9 Norte 0 -- -- 37
2020-10-31 22:00:00 22.3 6 Norte 9 Norte 0 -- -- 32
2020-10-31 21:00:00 23.2 4 Norte 9 Norte 0 -- -- 33
2020-10-31 20:00:00 23.6 3 Norte 8 Sudoeste 0 -- -- 34
2020-10-31 19:00:00 25.5 6 Sudoeste 13 Sudoeste 0 -- -- 48
2020-10-31 18:00:00 27.1 6 Sudoeste 18 Sur 0 -- -- 30
2020-10-31 17:00:00 28.3 9 Sur 27 Sudeste 0 -- -- 22
2020-10-31 16:00:00 29.7 8 Sur 26 Este 0 -- -- 21
2020-10-31 15:00:00 29.9 12 Sudeste 27 Sudeste 0 -- -- 23
2020-10-31 14:00:00 30.2 10 Sur 28 Sur 0 -- -- 24
2020-10-31 13:00:00 29.6 10 Sudeste 30 Sur 0 -- -- 27
2020-10-31 12:00:00 29.4 12 Sur 39 Sur 0 -- -- 28
2020-10-31 11:00:00 29.1 11 Sur 30 Sur 0 -- -- 27
2020-10-31 10:00:00 27.8 8 Sudoeste 21 Sur 0 -- -- 32
2020-10-31 09:00:00 26 5 Sur 13 Sur 0 -- -- 44
2020-10-31 08:00:00 24.1 3 Sudoeste 15 Sudoeste 0 -- -- 52
2020-10-31 07:00:00 24.1 7 Sudoeste 14 Oeste 0 -- -- 51
2020-10-31 06:00:00 24.2 11 Sur 25 Sur 0 -- -- 54
2020-10-31 05:00:00 24.8 10 Sur 31 Sur 0 -- -- 46
2020-10-31 04:00:00 22.2 5 Sur 12 Sudoeste 0 -- -- 48
2020-10-31 03:00:00 21.2 4 Norte 10 Norte 0 -- -- 40
2020-10-31 02:00:00 21.5 5 Norte 10 Norte 0 -- -- 35
2020-10-31 01:00:00 21.4 2 Norte 8 Norte 0 -- -- 33
2020-10-31 00:00:00 21.5 4 Norte 10 Norte 0 -- -- 36
2020-10-30 23:00:00 21.8 5 Norte 9 Norte 0 -- -- 42
2020-10-30 22:00:00 22.1 4 Noroeste 12 Norte 0 -- -- 43
2020-10-30 21:00:00 22.3 5 Norte 9 Norte 0 -- -- 40
2020-10-30 20:00:00 22.9 3 Norte 10 Nordeste 0 -- -- 41
2020-10-30 19:00:00 23.8 0 Calma 9 Norte 0 -- -- 61
2020-10-30 18:00:00 24.5 4 Norte 17 Nordeste 0 -- -- 63
2020-10-30 17:00:00 25.4 8 Nordeste 20 Noroeste 0 -- -- 62
2020-10-30 16:00:00 26.9 10 Nordeste 22 Oeste 0 -- -- 57
2020-10-30 15:00:00 27.6 9 Nordeste 23 Nordeste 0 -- -- 53
2020-10-30 14:00:00 27.4 10 Norte 28 Norte 0 -- -- 55
2020-10-30 13:00:00 27 10 Nordeste 22 Norte 0 -- -- 55
2020-10-30 12:00:00 26.4 12 Norte 25 Nordeste 0 -- -- 57
2020-10-30 11:00:00 25.7 10 Norte 24 Norte 0 -- -- 59
2020-10-30 10:00:00 24.5 10 Norte 25 Nordeste 0 -- -- 62
2020-10-30 09:00:00 23.2 9 Norte 32 Nordeste 0 -- -- 66
2020-10-30 08:00:00 21.6 10 Norte 23 Nordeste 0 -- -- 72
2020-10-30 07:00:00 21.3 9 Norte 30 Norte 0 -- -- 72
2020-10-30 06:00:00 21.5 15 Norte 36 Norte 0 -- -- 71
2020-10-30 05:00:00 21.6 13 Norte 29 Nordeste 0 -- -- 72
2020-10-30 04:00:00 21.3 8 Norte 20 Norte 0 -- -- 74
2020-10-30 03:00:00 21.4 5 Norte 20 Norte 0 -- -- 71
2020-10-30 02:00:00 21.4 5 Norte 16 Noroeste 0 -- -- 72
2020-10-30 01:00:00 21.3 4 Norte 21 Noroeste 0 -- -- 73
2020-10-30 00:00:00 21.4 5 Norte 31 Norte 0 -- -- 72
2020-10-29 23:00:00 21.5 8 Norte 26 Nordeste 0 -- -- 69
2020-10-29 22:00:00 21.5 8 Norte 26 Nordeste 0 -- -- 71
2020-10-29 21:00:00 21.5 10 Norte 22 Nordeste 0 -- -- 73
2020-10-29 20:00:00 21.5 9 Norte 26 Nordeste 0 -- -- 70
2020-10-29 19:00:00 21.7 12 Norte 27 Norte 0 -- -- 67
2020-10-29 18:00:00 22.1 10 Norte 24 Nordeste 0 -- -- 67
2020-10-29 17:00:00 22.8 13 Norte 27 Norte 0 -- -- 63
2020-10-29 16:00:00 24.6 9 Norte 34 Norte 0 -- -- 59
2020-10-29 15:00:00 24 10 Nordeste 26 Nordeste 0 -- -- 60
2020-10-29 14:00:00 24.5 10 Norte 27 Noroeste 0 -- -- 53
2020-10-29 13:00:00 24.8 12 Norte 28 Norte 0 -- -- 49
2020-10-29 12:00:00 23.8 6 Nordeste 22 Nordeste 0 -- -- 53
2020-10-29 11:00:00 23.5 9 Norte 21 Norte 0 -- -- 50
2020-10-29 10:00:00 22.3 5 Norte 20 Norte 0 -- -- 57
2020-10-29 09:00:00 22.1 4 Noroeste 19 Norte 0 -- -- 53
2020-10-29 08:00:00 21.5 7 Norte 18 Noroeste 0 -- -- 60
2020-10-29 07:00:00 21.3 5 Norte 19 Nordeste 0 -- -- 58
2020-10-29 06:00:00 21.4 4 Norte 18 Nordeste 0 -- -- 55
2020-10-29 05:00:00 21.3 5 Norte 11 Norte 0 -- -- 58
2020-10-29 04:00:00 21.2 4 Norte 19 Nordeste 0 -- -- 55
2020-10-29 03:00:00 21.5 5 Este 21 Norte 0 -- -- 57
2020-10-29 02:00:00 21.5 4 Norte 15 Norte 0 -- -- 58
2020-10-29 01:00:00 21.6 5 Noroeste 19 Noroeste 0 -- -- 59
2020-10-29 00:00:00 21.6 5 Norte 22 Norte 0 -- -- 56
2020-10-28 23:00:00 21.6 6 Norte 19 Norte 0 -- -- 59
2020-10-28 22:00:00 21.7 6 Norte 26 Norte 0 -- -- 58
2020-10-28 21:00:00 21.4 7 Norte 18 Norte 0 -- -- 64
2020-10-28 20:00:00 21.1 6 Norte 15 Norte 0 -- -- 68
2020-10-28 19:00:00 21.9 7 Norte 20 Norte 0 -- -- 64
2020-10-28 18:00:00 22 8 Norte 26 Noroeste 0 -- -- 61
2020-10-28 17:00:00 21.9 9 Norte 23 Norte 0 -- -- 64
2020-10-28 16:00:00 22.8 9 Norte 23 Norte 0 -- -- 60
2020-10-28 15:00:00 23.4 10 Norte 24 Norte 0 -- -- 58
2020-10-28 14:00:00 23.5 8 Norte 25 Norte 0 -- -- 54
2020-10-28 13:00:00 23.7 10 Norte 23 Norte 0 -- -- 54
2020-10-28 12:00:00 21.8 6 Norte 17 Nordeste 0 -- -- 70
2020-10-28 11:00:00 22.4 8 Norte 22 Norte 0 -- -- 57
2020-10-28 10:00:00 22.6 6 Norte 23 Norte 0 -- -- 53
2020-10-28 09:00:00 21.7 7 Norte 26 Norte 0 -- -- 57
2020-10-28 08:00:00 21.5 6 Norte 15 Nordeste 0 -- -- 59
2020-10-28 07:00:00 21.4 5 Noroeste 21 Norte 0 -- -- 59
2020-10-28 06:00:00 21.1 4 Noroeste 14 Nordeste 0 -- -- 60
2020-10-28 05:00:00 20.4 2 Norte 9 Noroeste 0 -- -- 69
2020-10-28 04:00:00 20.1 5 Norte 16 Norte 0 -- -- 71
2020-10-28 03:00:00 21.3 4 Norte 12 Norte 0 -- -- 64
2020-10-28 02:00:00 21.6 4 Sur 11 Sudoeste 0 -- -- 60
2020-10-28 01:00:00 21.6 3 Norte 11 Noroeste 0 -- -- 63
2020-10-28 00:00:00 21.6 5 Norte 12 Norte 0 -- -- 63
2020-10-27 23:00:00 21.7 3 Norte 14 Nordeste 0 -- -- 67
2020-10-27 22:00:00 21.7 4 Noroeste 19 Norte 0 -- -- 63
2020-10-27 21:00:00 21.5 6 Norte 18 Norte 0 -- -- 65
2020-10-27 20:00:00 21.5 7 Norte 16 Norte 0 -- -- 65
2020-10-27 19:00:00 21.8 7 Norte 19 Norte 0 -- -- 64
2020-10-27 18:00:00 22.4 5 Norte 19 Nordeste 0 -- -- 61
2020-10-27 17:00:00 23.1 7 Norte 26 Norte 0 -- -- 61
2020-10-27 16:00:00 23.5 10 Norte 27 Norte 0 -- -- 61
2020-10-27 15:00:00 24.7 11 Norte 25 Norte 0 -- -- 55
2020-10-27 14:00:00 25.1 8 Noroeste 24 Nordeste 0 -- -- 48
2020-10-27 13:00:00 25.1 8 Norte 27 Nordeste 0 -- -- 49
2020-10-27 12:00:00 24.6 8 Nordeste 30 Norte 0 -- -- 52
2020-10-27 11:00:00 24.3 6 Norte 21 Nordeste 0 -- -- 56
2020-10-27 10:00:00 23.2 7 Norte 18 Norte 0 -- -- 63
2020-10-27 09:00:00 22.8 6 Norte 16 Norte 0 -- -- 65
2020-10-27 08:00:00 21.9 4 Norte 12 Norte 0 -- -- 70
2020-10-27 07:00:00 21 5 Norte 11 Norte 0 -- -- 72
2020-10-27 06:00:00 19.9 0 Calma 4 Norte 0 -- -- 75
2020-10-27 05:00:00 20.3 2 Norte 5 Noroeste 0 -- -- 73
2020-10-27 04:00:00 21.4 2 Norte 7 Norte 0 -- -- 69
2020-10-27 03:00:00 21.5 2 Nordeste 7 Norte 0 -- -- 69
2020-10-27 02:00:00 21.5 3 Norte 9 Norte 0 -- -- 70
2020-10-27 01:00:00 21.4 3 Norte 5 Norte 0 -- -- 71
2020-10-27 00:00:00 21.9 2 Norte 9 Norte 0 -- -- 67